This is the latest recevied weather packets stored in our database for station/object KC4JES. If no packets are shown the sender has not sent any weather packets the latest 10 day(s).
| Time | Temp. | Humidity | Pressure | Rain* | Wind** | Luminosity | Snow |
|---|---|---|---|---|---|---|---|
| 1777672995 | 26.67° C | 68% | 1010.3 hPa | 0 mm | - | 39 W/m² | - |
| 1777672692 | 26.67° C | 69% | 1010.5 hPa | 0 mm | - | 31 W/m² | - |
| 1777672388 | 26.67° C | 68% | 1010.3 hPa | 0 mm | - | 57 W/m² | - |
| 1777672083 | 27.22° C | 68% | 1010.1 hPa | 0 mm | - | 72 W/m² | - |
| 1777671779 | 27.22° C | 66% | 1010 hPa | 0 mm | - | 107 W/m² | - |
| 1777671475 | 27.22° C | 64% | 1010.3 hPa | 0 mm | - | 131 W/m² | - |
| 1777671172 | 27.22° C | 63% | 1010.4 hPa | 0 mm | - | 130 W/m² | - |
| 1777670868 | 27.78° C | 61% | 1010.1 hPa | 0 mm | - | 118 W/m² | - |
| 1777670564 | 28.89° C | 61% | 1010.1 hPa | 0 mm | - | 229 W/m² | - |
| 1777670262 | 28.33° C | 62% | 1009.9 hPa | 0 mm | - | 351 W/m² | - |
| 1777669958 | 27.78° C | 64% | 1009.9 hPa | 0 mm | - | 387 W/m² | - |
| 1777669656 | 27.78° C | 65% | 1009.9 hPa | 0 mm | - | 242 W/m² | - |
| 1777669352 | 27.78° C | 65% | 1009.9 hPa | 0 mm | - | 201 W/m² | - |
| 1777669049 | 28.33° C | 63% | 1009.9 hPa | 0 mm | - | 311 W/m² | - |
| 1777668746 | 28.89° C | 63% | 1010 hPa | 0 mm | - | 298 W/m² | - |
| 1777668443 | 28.89° C | 62% | 1009.9 hPa | 0 mm | - | 254 W/m² | - |
| 1777668140 | 30° C | 57% | 1009.9 hPa | 0 mm | - | 279 W/m² | - |
| 1777667835 | 30° C | 57% | 1009.9 hPa | 0 mm | - | 496 W/m² | - |
| 1777667533 | 30° C | 56% | 1010.2 hPa | 0 mm | - | 472 W/m² | - |
| 1777667230 | 30° C | 56% | 1010.4 hPa | 0 mm | - | 501 W/m² | - |
| 1777666927 | 30° C | 60% | 1010.5 hPa | 0 mm | - | 640 W/m² | - |
| 1777666624 | 28.89° C | 63% | 1010.4 hPa | 0 mm | - | 652 W/m² | - |
| 1777666320 | 27.78° C | 66% | 1010.4 hPa | 0 mm | - | 659 W/m² | - |
| 1777666017 | 27.78° C | 68% | 1010.6 hPa | 0 mm | - | 215 W/m² | - |
| 1777665715 | 27.78° C | 66% | 1010.8 hPa | 0 mm | - | 220 W/m² | - |
* Rain latest hour (hover to see other rain measurements)
** Current wind speed in m/s (hover to see current wind gust speed)